JP-0075 weather

Yokoyama Ryu Memorial Comics Hall Helipad
Kochi, Kōchi Prefecture, Japan

Public forecast

Using degrees Celsius for public forecast. Weather courtesy of forecast.io.

Closest aviation weather report (METAR) to Yokoyama Ryu Memorial Comics Hall Helipad

Closest report is Kōchi Ryōma Airport, 6.2 nm (11.4 km) E. Retrieved 2019/10/23 09:00 UTC (29 minutes ago):

RJOK 230900Z 32004KT 9999 FEW015 SCT030 BKN040 21/16 Q1015

Closest aviation forecast (TAF) to Yokoyama Ryu Memorial Comics Hall Helipad

Closest forecast is Kōchi Ryōma Airport, 6.2 nm (11.4 km) E. Retrieved 2019/10/23 06:30 UTC (3 hours ago):

TAF RJOK 230509Z 2306/2412 20005KT 9999 FEW030 SCT040 BECMG 2307/2309 35005KT BECMG 2321/2400 12012KT TEMPO 2403/2409 4000 SHRA BR BECMG 2406/2409 12022KT TEMPO 2409/2412 3000 SHRA BR FEW002 BKN008 BKN025